Terminal Aerodrome Forecast
Issued by NWS

Home | Current Version | Previous Version | Text Only | Print | Product List | Glossary On
Versions: 1 2 3 4 5 6 7 8 9 10 11
000
FTUS42 TJSJ 180520
TAFJPS
TAF
TJPS 180520Z 1806/1906 12015KT P6SM FEW030 SCT060
     FM181400 13014KT P6SM SCT030 SCT060
     FM182300 07009KT P6SM FEW030
      AMD NOT SKED=

USA.gov is the U.S. government's official web portal to all federal, state and local government web resources and services.